createdAt,value
2022-10-28T00:01:13.990Z,78.80
2022-10-28T00:04:02.775Z,79.20
2022-10-28T00:06:51.624Z,79.30
2022-10-28T00:09:39.367Z,79.30
2022-10-28T00:12:26.752Z,79.20
2022-10-28T00:15:14.033Z,78.90
2022-10-28T00:18:01.684Z,78.90
2022-10-28T00:20:49.233Z,79.20
2022-10-28T00:23:38.517Z,79.20
2022-10-28T00:26:28.790Z,79.40
2022-10-28T00:29:18.695Z,79.30
2022-10-28T00:32:06.595Z,79.30
2022-10-28T00:34:54.158Z,79.10
2022-10-28T00:37:41.486Z,78.90
2022-10-28T00:40:35.176Z,79.00
2022-10-28T00:43:36.604Z,79.70
2022-10-28T00:46:32.210Z,79.80
2022-10-28T00:49:25.213Z,79.30
2022-10-28T00:52:18.336Z,79.10
2022-10-28T00:55:06.900Z,79.00
2022-10-28T00:57:57.983Z,79.20
2022-10-28T01:00:45.616Z,79.70
2022-10-28T01:03:33.371Z,79.40
2022-10-28T01:06:21.533Z,79.40
2022-10-28T01:09:08.761Z,79.90
2022-10-28T01:12:01.913Z,79.30
2022-10-28T01:15:05.965Z,79.20
2022-10-28T01:18:01.693Z,80.00
2022-10-28T01:21:59.028Z,80.00
2022-10-28T01:25:10.626Z,80.70
2022-10-28T01:28:34.607Z,80.40
2022-10-28T01:31:41.328Z,80.50
2022-10-28T01:34:38.329Z,80.40
2022-10-28T01:37:34.703Z,80.00
2022-10-28T01:40:32.313Z,80.40
2022-10-28T01:43:29.626Z,80.60
2022-10-28T01:46:21.836Z,80.70
2022-10-28T01:49:17.383Z,80.60
2022-10-28T01:52:08.602Z,81.00
2022-10-28T01:55:01.827Z,80.50
2022-10-28T01:57:51.016Z,80.60
2022-10-28T02:00:39.010Z,80.70
2022-10-28T02:03:27.057Z,80.70
2022-10-28T02:06:20.441Z,80.60
2022-10-28T02:09:29.455Z,80.40
2022-10-28T02:12:26.817Z,81.10
2022-10-28T02:15:39.554Z,81.20
2022-10-28T02:18:36.346Z,81.10
2022-10-28T02:21:37.690Z,80.60
2022-10-28T02:24:37.649Z,80.70
2022-10-28T02:27:35.332Z,80.40
2022-10-28T02:30:26.447Z,81.30
2022-10-28T02:33:19.789Z,80.60
2022-10-28T02:36:13.456Z,80.70
2022-10-28T02:39:03.646Z,80.90
2022-10-28T02:41:55.689Z,81.00
2022-10-28T02:44:49.979Z,81.30
2022-10-28T02:47:44.038Z,81.40
2022-10-28T02:50:36.740Z,81.40
2022-10-28T02:53:31.342Z,81.60
2022-10-28T02:56:22.800Z,81.70
2022-10-28T02:59:12.757Z,81.50
2022-10-28T03:02:00.943Z,80.60
2022-10-28T03:04:48.887Z,79.40
2022-10-28T03:07:36.816Z,79.30
2022-10-28T03:10:24.861Z,78.70
2022-10-28T03:13:14.223Z,79.40
2022-10-28T03:16:02.402Z,79.60
2022-10-28T03:18:51.496Z,79.40
2022-10-28T03:21:39.486Z,80.40
2022-10-28T03:24:27.538Z,79.90
2022-10-28T03:27:15.876Z,79.50
2022-10-28T03:30:05.584Z,80.10
2022-10-28T03:32:54.415Z,80.80
2022-10-28T03:35:42.800Z,80.10
2022-10-28T03:38:31.012Z,79.70
2022-10-28T03:41:19.223Z,80.00
2022-10-28T03:44:07.860Z,79.80
2022-10-28T03:46:57.606Z,80.10
2022-10-28T03:49:45.710Z,80.20
2022-10-28T03:52:33.715Z,79.80
2022-10-28T03:55:23.818Z,80.20
2022-10-28T03:58:11.581Z,80.00
2022-10-28T04:00:59.615Z,80.00
2022-10-28T04:03:49.257Z,80.30
2022-10-28T04:06:37.572Z,80.50
2022-10-28T04:09:25.683Z,80.60
2022-10-28T04:12:13.489Z,80.70
2022-10-28T04:15:01.231Z,80.30
2022-10-28T04:17:49.282Z,80.30
2022-10-28T04:20:38.545Z,80.20
2022-10-28T04:23:26.534Z,81.00
2022-10-28T04:26:15.499Z,80.50
2022-10-28T04:29:03.468Z,81.30
2022-10-28T04:31:52.371Z,80.70
2022-10-28T04:34:41.209Z,81.00
2022-10-28T04:37:30.581Z,81.30
2022-10-28T04:40:18.822Z,81.10
2022-10-28T04:43:08.611Z,81.90
2022-10-28T04:45:57.838Z,81.30
2022-10-28T04:48:45.658Z,81.10
2022-10-28T04:51:33.453Z,80.90
2022-10-28T04:54:22.506Z,81.30
2022-10-28T04:57:10.190Z,81.40
2022-10-28T04:59:58.159Z,81.10
2022-10-28T05:02:46.288Z,81.20
2022-10-28T05:05:34.260Z,81.40
2022-10-28T05:08:21.932Z,81.60
2022-10-28T05:11:11.564Z,81.30
2022-10-28T05:13:59.905Z,81.80
2022-10-28T05:16:48.286Z,82.00
2022-10-28T05:19:36.195Z,81.70
2022-10-28T05:22:24.243Z,81.80
2022-10-28T05:25:12.258Z,81.50
2022-10-28T05:28:02.119Z,81.20
2022-10-28T05:30:52.078Z,82.60
2022-10-28T05:33:41.085Z,82.70
2022-10-28T05:36:29.241Z,82.40
2022-10-28T05:39:17.074Z,81.60
2022-10-28T05:42:06.001Z,81.40
2022-10-28T05:44:55.209Z,82.60
2022-10-28T05:47:45.398Z,81.80
2022-10-28T05:50:33.376Z,82.10
2022-10-28T05:53:21.233Z,81.50
2022-10-28T05:56:09.965Z,81.50
2022-10-28T05:58:58.089Z,83.00
2022-10-28T06:01:47.350Z,82.50
2022-10-28T06:04:16.714Z,81.70
2022-10-28T06:06:46.407Z,81.60
2022-10-28T06:09:15.804Z,81.80
2022-10-28T06:11:43.985Z,81.20
2022-10-28T06:14:13.530Z,81.30
2022-10-28T06:16:43.484Z,81.10
2022-10-28T06:19:14.722Z,81.10
2022-10-28T06:21:44.912Z,81.90
2022-10-28T06:24:14.585Z,83.00
2022-10-28T06:26:44.137Z,81.30
2022-10-28T06:29:13.861Z,81.60
2022-10-28T06:31:43.825Z,82.10
2022-10-28T06:34:14.643Z,83.00
2022-10-28T06:36:44.207Z,82.10
2022-10-28T06:39:13.832Z,81.90
2022-10-28T06:41:43.609Z,81.90
2022-10-28T06:44:13.245Z,82.30
2022-10-28T06:46:44.266Z,82.10
2022-10-28T06:49:15.128Z,82.40
2022-10-28T06:51:44.582Z,82.90
2022-10-28T06:54:14.036Z,82.50
2022-10-28T06:56:45.358Z,82.90
2022-10-28T06:59:14.988Z,82.70
2022-10-28T07:01:44.807Z,82.30
2022-10-28T07:04:16.202Z,82.90
2022-10-28T07:06:47.573Z,84.10
2022-10-28T07:09:19.445Z,82.70
2022-10-28T07:11:54.940Z,82.50
2022-10-28T07:14:25.028Z,84.20
2022-10-28T07:16:54.549Z,83.50
2022-10-28T07:19:25.635Z,83.10
2022-10-28T07:21:55.117Z,83.90
2022-10-28T07:24:24.693Z,83.50
2022-10-28T07:26:56.977Z,84.00
2022-10-28T07:29:27.348Z,84.10
2022-10-28T07:31:57.152Z,83.60
2022-10-28T07:34:28.223Z,84.60
2022-10-28T07:36:58.428Z,83.90
2022-10-28T07:39:28.270Z,84.70
2022-10-28T07:41:57.976Z,84.10
2022-10-28T07:44:27.511Z,84.10
2022-10-28T07:46:58.196Z,84.20
2022-10-28T07:49:29.518Z,84.20
2022-10-28T07:52:02.254Z,84.50
2022-10-28T07:54:32.021Z,85.70
2022-10-28T07:57:01.429Z,84.50
2022-10-28T07:59:30.926Z,84.60
2022-10-28T08:02:03.191Z,84.50
2022-10-28T08:04:34.394Z,84.90
2022-10-28T08:07:03.872Z,84.90
2022-10-28T08:09:33.710Z,84.40
2022-10-28T08:12:03.133Z,85.00
2022-10-28T08:14:32.660Z,84.50
2022-10-28T08:17:02.664Z,84.60
2022-10-28T08:19:33.583Z,85.60
2022-10-28T08:22:03.633Z,85.80
2022-10-28T08:24:33.072Z,84.60
2022-10-28T08:27:03.556Z,84.70
2022-10-28T08:29:35.796Z,85.10
2022-10-28T08:32:15.100Z,85.90
2022-10-28T08:34:50.263Z,85.20
2022-10-28T08:37:23.335Z,86.40
2022-10-28T08:39:53.071Z,84.90
2022-10-28T08:42:44.906Z,85.00
2022-10-28T08:45:36.018Z,86.50
2022-10-28T08:48:20.850Z,86.20
2022-10-28T08:50:58.702Z,87.70
2022-10-28T08:53:36.226Z,86.80
2022-10-28T08:56:14.686Z,87.20
2022-10-28T09:01:50.444Z,88.20
2022-10-28T09:04:31.079Z,88.20
2022-10-28T09:07:02.508Z,89.30
2022-10-28T09:09:32.354Z,89.60
2022-10-28T09:12:23.547Z,89.80
2022-10-28T09:15:24.990Z,90.00
2022-10-28T09:17:56.779Z,89.50
2022-10-28T09:20:37.754Z,89.80
2022-10-28T09:23:19.704Z,89.80
2022-10-28T09:26:06.081Z,89.60
2022-10-28T09:28:50.986Z,89.20
2022-10-28T09:31:31.983Z,89.00
2022-10-28T09:34:17.684Z,88.70
2022-10-28T09:36:53.252Z,88.20
2022-10-28T09:39:33.230Z,88.10
2022-10-28T09:42:05.239Z,87.90
2022-10-28T09:44:43.298Z,87.90
2022-10-28T09:47:20.146Z,88.00
2022-10-28T09:49:51.203Z,87.90
2022-10-28T09:52:26.020Z,87.80
2022-10-28T09:54:57.955Z,87.80
2022-10-28T09:57:33.600Z,87.80
2022-10-28T10:00:02.749Z,87.90
2022-10-28T10:02:40.494Z,88.60
2022-10-28T10:05:17.088Z,89.30
2022-10-28T10:07:52.740Z,89.90
2022-10-28T10:10:27.028Z,90.00
2022-10-28T10:13:00.575Z,90.00
2022-10-28T10:15:34.292Z,89.80
2022-10-28T10:18:06.555Z,90.00
2022-10-28T10:20:50.440Z,89.80
2022-10-28T10:23:30.938Z,88.90
2022-10-28T10:26:08.041Z,88.90
2022-10-28T10:28:45.585Z,88.80
2022-10-28T10:31:21.739Z,88.70
2022-10-28T10:33:54.078Z,88.60
2022-10-28T10:36:28.375Z,88.70
2022-10-28T10:38:59.394Z,88.70
2022-10-28T10:41:37.487Z,88.10
2022-10-28T10:44:32.015Z,86.70
2022-10-28T10:47:22.689Z,87.30
2022-10-28T10:49:55.011Z,87.00
2022-10-28T10:52:26.204Z,88.50
2022-10-28T10:55:02.642Z,88.20
2022-10-28T10:57:34.852Z,86.10
2022-10-28T11:00:05.309Z,87.60
2022-10-28T11:02:39.781Z,87.70
2022-10-28T11:05:11.791Z,85.90
2022-10-28T11:07:48.244Z,86.40
2022-10-28T11:10:25.063Z,86.20
2022-10-28T11:12:57.808Z,84.10
2022-10-28T11:15:29.783Z,84.10
2022-10-28T11:18:02.071Z,84.30
2022-10-28T11:20:44.983Z,83.10
2022-10-28T11:23:39.737Z,81.90
2022-10-28T11:26:14.458Z,80.40
2022-10-28T11:29:08.606Z,80.20
2022-10-28T11:32:20.585Z,79.20
2022-10-28T11:35:10.229Z,79.60
2022-10-28T11:37:53.067Z,79.40
2022-10-28T11:40:32.345Z,78.30
2022-10-28T11:43:19.874Z,77.20
2022-10-28T11:46:01.178Z,78.00
2022-10-28T11:48:47.778Z,77.00
2022-10-28T11:51:33.829Z,76.50
2022-10-28T11:54:27.083Z,74.90
2022-10-28T11:57:02.754Z,74.30
2022-10-28T12:00:03.383Z,74.10
2022-10-28T12:03:02.534Z,74.10
2022-10-28T12:05:38.155Z,72.70
2022-10-28T12:08:24.118Z,72.10
2022-10-28T12:11:08.830Z,72.70
2022-10-28T12:13:47.039Z,69.80
2022-10-28T12:16:23.334Z,70.10
2022-10-28T12:18:58.734Z,69.10
2022-10-28T12:24:14.420Z,68.30
2022-10-28T12:26:48.471Z,68.90
2022-10-28T12:29:22.900Z,67.20
2022-10-28T12:31:57.753Z,67.20
2022-10-28T12:37:13.375Z,66.50
2022-10-28T12:39:52.072Z,66.50
2022-10-28T12:42:26.284Z,65.10
2022-10-28T12:44:59.502Z,65.90
2022-10-28T12:47:39.183Z,65.20
2022-10-28T12:50:21.985Z,64.80
2022-10-28T12:53:15.430Z,63.80
2022-10-28T12:55:51.749Z,63.80
2022-10-28T12:58:26.712Z,64.00
2022-10-28T13:01:01.271Z,64.10
2022-10-28T13:03:30.514Z,64.10
2022-10-28T13:06:32.484Z,64.30
2022-10-28T13:09:42.731Z,64.80
2022-10-28T13:12:48.134Z,65.20
2022-10-28T13:15:50.779Z,65.30
2022-10-28T13:19:02.822Z,64.00
2022-10-28T13:22:15.801Z,64.60
2022-10-28T13:24:57.274Z,65.20
2022-10-28T13:27:27.165Z,64.30
2022-10-28T13:29:58.796Z,65.20
2022-10-28T13:32:38.326Z,65.10
2022-10-28T13:35:21.964Z,64.60
2022-10-28T13:37:55.842Z,64.40
2022-10-28T13:41:11.071Z,64.60
2022-10-28T13:44:24.844Z,64.50
2022-10-28T13:47:28.982Z,65.60
2022-10-28T13:50:37.376Z,64.80
2022-10-28T13:53:53.262Z,65.70
2022-10-28T13:56:49.480Z,65.90
2022-10-28T13:59:29.370Z,67.00
2022-10-28T14:02:32.337Z,66.30
2022-10-28T14:05:02.081Z,66.70
2022-10-28T14:07:33.871Z,65.70
2022-10-28T14:10:23.533Z,65.30
2022-10-28T14:12:57.869Z,65.50
2022-10-28T14:15:31.031Z,65.30
2022-10-28T14:18:16.141Z,65.50
2022-10-28T14:21:01.800Z,65.60
2022-10-28T14:24:31.575Z,65.60
2022-10-28T14:27:41.372Z,66.00
2022-10-28T14:30:21.713Z,66.60
2022-10-28T14:33:26.939Z,66.00
2022-10-28T14:36:23.488Z,66.80
2022-10-28T14:39:28.657Z,66.40
2022-10-28T14:42:28.358Z,65.90
2022-10-28T14:45:20.344Z,66.50
2022-10-28T14:48:14.230Z,66.00
2022-10-28T14:50:47.314Z,66.70
2022-10-28T14:53:25.736Z,66.60
2022-10-28T14:56:02.215Z,66.80
2022-10-28T14:58:36.646Z,66.60
2022-10-28T15:01:24.944Z,67.00
2022-10-28T15:03:59.328Z,67.20
2022-10-28T15:06:39.191Z,66.60
2022-10-28T15:09:19.576Z,67.60
2022-10-28T15:11:52.839Z,68.00
2022-10-28T15:14:32.019Z,67.40
2022-10-28T15:17:13.255Z,67.80
2022-10-28T15:19:44.080Z,68.00
2022-10-28T15:22:21.517Z,68.00
2022-10-28T15:25:00.880Z,67.90
2022-10-28T15:27:33.704Z,68.60
2022-10-28T15:30:05.333Z,68.80
2022-10-28T15:32:37.099Z,68.00
2022-10-28T15:35:41.379Z,68.20
2022-10-28T15:38:34.889Z,67.90
2022-10-28T15:41:04.161Z,68.60
2022-10-28T15:43:33.369Z,66.50
2022-10-28T15:46:12.468Z,67.40
2022-10-28T15:48:43.531Z,66.90
2022-10-28T15:51:15.019Z,67.60
2022-10-28T15:53:44.883Z,67.70
2022-10-28T15:56:23.621Z,68.00
2022-10-28T15:59:18.821Z,67.60
2022-10-28T16:01:48.201Z,67.80
2022-10-28T16:04:45.207Z,67.70
2022-10-28T16:07:14.447Z,68.00
2022-10-28T16:09:47.577Z,67.50
2022-10-28T16:12:20.324Z,68.10
2022-10-28T16:14:55.227Z,68.10
2022-10-28T16:17:27.162Z,68.30
2022-10-28T16:20:00.778Z,68.40
2022-10-28T16:22:31.762Z,69.00
2022-10-28T16:25:00.785Z,68.70
2022-10-28T16:27:33.026Z,68.80
2022-10-28T16:30:02.052Z,68.70
2022-10-28T16:32:38.768Z,68.70
2022-10-28T16:35:16.728Z,68.50
2022-10-28T16:37:49.473Z,69.20
2022-10-28T16:43:17.589Z,68.50
2022-10-28T16:45:46.831Z,68.60
2022-10-28T16:48:17.282Z,68.40
2022-10-28T16:50:51.916Z,68.50
2022-10-28T16:53:21.494Z,68.90
2022-10-28T16:55:50.764Z,68.40
2022-10-28T16:58:23.128Z,68.90
2022-10-28T17:00:55.889Z,68.70
2022-10-28T17:03:24.984Z,69.20
2022-10-28T17:05:55.420Z,68.80
2022-10-28T17:08:49.049Z,68.80
2022-10-28T17:11:16.248Z,68.80
2022-10-28T17:13:45.305Z,68.90
2022-10-28T17:16:14.356Z,68.40
2022-10-28T17:18:43.658Z,69.10
2022-10-28T17:21:14.023Z,68.80
2022-10-28T17:23:43.128Z,69.40
2022-10-28T17:26:12.305Z,68.90
2022-10-28T17:28:41.385Z,69.20
2022-10-28T17:31:10.786Z,69.90
2022-10-28T17:33:39.807Z,69.20
2022-10-28T17:36:10.472Z,69.20
2022-10-28T17:38:40.891Z,69.50
2022-10-28T17:41:10.818Z,69.50
2022-10-28T17:43:39.959Z,69.60
2022-10-28T17:46:09.940Z,69.80
2022-10-28T17:48:40.616Z,68.80
2022-10-28T17:51:10.656Z,69.40
2022-10-28T17:53:41.944Z,68.90
2022-10-28T17:56:11.974Z,69.90
2022-10-28T17:58:41.764Z,68.70
2022-10-28T18:01:12.977Z,68.60
2022-10-28T18:03:42.786Z,69.90
2022-10-28T18:06:14.190Z,68.60
2022-10-28T18:08:46.004Z,69.90
2022-10-28T18:11:17.700Z,69.50
2022-10-28T18:13:51.458Z,69.70
2022-10-28T18:16:24.174Z,70.10
2022-10-28T18:18:54.260Z,69.70
2022-10-28T18:21:25.561Z,68.80
2022-10-28T18:24:03.821Z,69.90
2022-10-28T18:26:34.967Z,69.50
2022-10-28T18:29:05.900Z,70.40
2022-10-28T18:31:36.068Z,70.90
2022-10-28T18:34:06.624Z,70.30
2022-10-28T18:36:37.211Z,69.80
2022-10-28T18:39:09.740Z,70.50
2022-10-28T18:41:42.657Z,70.90
2022-10-28T18:44:17.168Z,70.50
2022-10-28T18:46:46.735Z,71.10
2022-10-28T18:49:16.179Z,69.00
2022-10-28T18:51:45.798Z,70.00
2022-10-28T18:54:16.898Z,70.20
2022-10-28T18:56:48.001Z,70.20
2022-10-28T18:59:18.086Z,69.90
2022-10-28T19:01:51.015Z,70.40
2022-10-28T19:04:20.477Z,70.20
2022-10-28T19:06:49.868Z,69.70
2022-10-28T19:09:20.638Z,70.20
2022-10-28T19:11:49.860Z,70.40
2022-10-28T19:14:19.222Z,70.40
2022-10-28T19:16:48.712Z,70.80
2022-10-28T19:19:17.912Z,69.60
2022-10-28T19:21:47.235Z,70.50
2022-10-28T19:24:16.557Z,70.00
2022-10-28T19:26:47.228Z,71.70
2022-10-28T19:29:16.463Z,70.60
2022-10-28T19:31:45.772Z,71.80
2022-10-28T19:34:15.420Z,71.40
2022-10-28T19:36:44.650Z,70.70
2022-10-28T19:39:13.882Z,71.60
2022-10-28T19:41:43.483Z,71.40
2022-10-28T19:44:14.575Z,71.10
2022-10-28T19:46:43.866Z,73.10
2022-10-28T19:49:13.327Z,71.70
2022-10-28T19:51:43.107Z,71.10
2022-10-28T19:54:15.118Z,70.30
2022-10-28T19:56:45.315Z,71.70
2022-10-28T19:59:16.940Z,71.20
2022-10-28T20:01:46.645Z,70.40
2022-10-28T20:04:34.583Z,70.20
2022-10-28T20:07:23.515Z,70.50
2022-10-28T20:10:11.255Z,71.40
2022-10-28T20:12:58.801Z,72.10
2022-10-28T20:15:47.940Z,72.20
2022-10-28T20:18:36.216Z,72.80
2022-10-28T20:21:27.232Z,72.30
2022-10-28T20:24:15.717Z,73.00
2022-10-28T20:27:03.311Z,71.70
2022-10-28T20:29:51.366Z,71.90
2022-10-28T20:32:40.516Z,71.10
2022-10-28T20:35:29.416Z,72.30
2022-10-28T20:38:18.896Z,73.20
2022-10-28T20:41:08.721Z,72.90
2022-10-28T20:43:57.292Z,71.20
2022-10-28T20:46:48.036Z,72.80
2022-10-28T20:49:42.791Z,73.80
2022-10-28T20:52:30.896Z,71.90
2022-10-28T20:55:18.895Z,72.10
2022-10-28T20:58:06.596Z,70.80
2022-10-28T21:03:44.746Z,74.50
2022-10-28T21:06:33.773Z,74.40
2022-10-28T21:09:21.097Z,74.30
2022-10-28T21:12:08.668Z,74.10
2022-10-28T21:14:56.328Z,74.00
2022-10-28T21:17:44.165Z,74.40
2022-10-28T21:20:31.722Z,74.10
2022-10-28T21:23:20.705Z,74.40
2022-10-28T21:26:11.160Z,74.70
2022-10-28T21:28:58.355Z,74.90
2022-10-28T21:31:45.687Z,75.00
2022-10-28T21:34:33.028Z,75.00
2022-10-28T21:37:21.154Z,75.10
2022-10-28T21:40:12.528Z,75.00
2022-10-28T21:42:59.993Z,75.50
2022-10-28T21:45:47.256Z,75.20
2022-10-28T21:48:36.667Z,74.90
2022-10-28T21:51:24.317Z,75.30
2022-10-28T21:54:11.504Z,75.20
2022-10-28T21:57:00.134Z,75.20
2022-10-28T21:59:49.575Z,75.10
2022-10-28T22:02:37.011Z,74.90
2022-10-28T22:05:24.685Z,74.90
2022-10-28T22:08:12.218Z,75.20
2022-10-28T22:11:01.946Z,75.00
2022-10-28T22:13:57.534Z,75.30
2022-10-28T22:16:45.138Z,76.10
2022-10-28T22:19:32.380Z,75.60
2022-10-28T22:22:19.740Z,75.40
2022-10-28T22:25:10.423Z,75.50
2022-10-28T22:27:58.295Z,75.60
2022-10-28T22:30:47.062Z,75.60
2022-10-28T22:33:35.004Z,76.00
2022-10-28T22:36:27.353Z,76.00
2022-10-28T22:39:14.861Z,76.00
2022-10-28T22:42:02.870Z,75.80
2022-10-28T22:44:50.258Z,75.60
2022-10-28T22:47:38.854Z,75.80
2022-10-28T22:50:26.543Z,75.70
2022-10-28T22:53:13.784Z,75.90
2022-10-28T22:56:01.266Z,75.80
2022-10-28T22:58:49.312Z,76.00
2022-10-28T23:01:36.747Z,76.30
2022-10-28T23:04:25.848Z,76.30
2022-10-28T23:07:13.475Z,76.50
2022-10-28T23:10:00.767Z,76.20
2022-10-28T23:12:48.148Z,76.20
2022-10-28T23:15:35.608Z,76.20
2022-10-28T23:18:27.358Z,76.00
2022-10-28T23:21:19.089Z,76.40
2022-10-28T23:24:07.622Z,76.60
2022-10-28T23:26:55.259Z,76.20
2022-10-28T23:29:42.613Z,76.20
2022-10-28T23:32:31.399Z,76.40
2022-10-28T23:35:18.913Z,76.60
2022-10-28T23:38:09.101Z,76.20
2022-10-28T23:40:58.611Z,76.70
2022-10-28T23:43:46.518Z,76.70
2022-10-28T23:46:37.375Z,77.40
2022-10-28T23:49:25.031Z,76.70
2022-10-28T23:52:12.423Z,76.70
2022-10-28T23:55:01.019Z,76.80
2022-10-28T23:57:48.556Z,77.00
